createdAt,value
2023-02-03T00:00:42.938Z,2.90
2023-02-03T00:03:10.903Z,2.90
2023-02-03T00:05:39.163Z,2.53
2023-02-03T00:08:09.183Z,2.93
2023-02-03T00:10:39.895Z,3.10
2023-02-03T00:13:09.535Z,3.23
2023-02-03T00:15:37.305Z,2.60
2023-02-03T00:18:05.147Z,3.17
2023-02-03T00:20:33.271Z,2.57
2023-02-03T00:23:05.776Z,2.73
2023-02-03T00:25:33.658Z,3.00
2023-02-03T00:28:03.111Z,2.77
2023-02-03T00:30:31.062Z,2.30
2023-02-03T00:32:58.827Z,3.20
2023-02-03T00:35:26.628Z,2.80
2023-02-03T00:37:56.163Z,2.53
2023-02-03T00:40:26.226Z,2.80
2023-02-03T00:42:54.842Z,2.33
2023-02-03T00:45:24.063Z,2.80
2023-02-03T00:47:51.815Z,2.80
2023-02-03T00:50:19.757Z,3.20
2023-02-03T00:52:47.599Z,2.93
2023-02-03T00:55:15.526Z,3.00
2023-02-03T00:57:44.401Z,3.13
2023-02-03T01:00:13.417Z,2.33
2023-02-03T01:02:42.783Z,3.77
2023-02-03T01:05:10.661Z,3.53
2023-02-03T01:07:38.547Z,3.23
2023-02-03T01:10:07.305Z,3.13
2023-02-03T01:12:35.275Z,2.60
2023-02-03T01:15:03.077Z,3.00
2023-02-03T01:17:31.223Z,3.23
2023-02-03T01:20:00.362Z,3.03
2023-02-03T01:22:30.181Z,3.17
2023-02-03T01:24:58.068Z,3.10
2023-02-03T01:27:25.905Z,3.90
2023-02-03T01:29:53.740Z,3.77
2023-02-03T01:32:21.509Z,3.80
2023-02-03T01:34:49.335Z,3.73
2023-02-03T01:37:19.056Z,3.70
2023-02-03T01:39:46.861Z,4.23
2023-02-03T01:42:16.110Z,3.57
2023-02-03T01:44:47.496Z,3.77
2023-02-03T01:47:19.579Z,3.33
2023-02-03T01:49:53.122Z,3.60
2023-02-03T01:52:22.491Z,3.73
2023-02-03T01:54:52.650Z,3.87
2023-02-03T01:57:24.026Z,4.13
2023-02-03T01:59:55.238Z,4.83
2023-02-03T02:02:23.843Z,3.90
2023-02-03T02:04:57.593Z,4.27
2023-02-03T02:07:26.992Z,4.10
2023-02-03T02:09:56.466Z,3.83
2023-02-03T02:12:24.342Z,4.67
2023-02-03T02:14:52.425Z,4.97
2023-02-03T02:17:38.545Z,4.87
2023-02-03T02:20:34.081Z,4.60
2023-02-03T02:23:56.525Z,4.50
2023-02-03T02:26:57.886Z,4.17
2023-02-03T02:29:55.197Z,5.00
2023-02-03T02:32:35.242Z,4.20
2023-02-03T02:35:10.655Z,4.73
2023-02-03T02:37:48.958Z,4.80
2023-02-03T02:40:21.118Z,5.23
2023-02-03T02:43:02.002Z,5.27
2023-02-03T02:45:33.417Z,4.57
2023-02-03T02:48:09.247Z,5.03
2023-02-03T02:50:42.197Z,5.47
2023-02-03T02:53:11.113Z,4.63
2023-02-03T02:55:41.707Z,4.80
2023-02-03T02:58:14.924Z,4.40
2023-02-03T03:00:45.211Z,4.80
2023-02-03T03:03:19.075Z,5.30
2023-02-03T03:05:52.589Z,4.23
2023-02-03T03:08:24.131Z,4.80
2023-02-03T03:10:54.534Z,4.70
2023-02-03T03:13:26.270Z,5.20
2023-02-03T03:15:57.566Z,4.43
2023-02-03T03:18:31.797Z,4.47
2023-02-03T03:21:05.958Z,4.43
2023-02-03T03:23:39.193Z,4.53
2023-02-03T03:26:12.778Z,4.57
2023-02-03T03:28:47.756Z,3.87
2023-02-03T03:31:16.489Z,4.23
2023-02-03T03:33:46.325Z,4.40
2023-02-03T03:36:23.195Z,4.23
2023-02-03T03:38:57.930Z,4.27
2023-02-03T03:41:32.843Z,3.67
2023-02-03T03:44:04.455Z,4.20
2023-02-03T03:46:39.393Z,4.00
2023-02-03T03:49:11.454Z,4.23
2023-02-03T03:51:44.762Z,3.77
2023-02-03T03:54:15.613Z,3.60
2023-02-03T03:56:48.560Z,2.87
2023-02-03T03:59:20.987Z,3.43
2023-02-03T04:01:50.321Z,3.80
2023-02-03T04:04:20.663Z,3.30
2023-02-03T04:06:48.533Z,3.23
2023-02-03T04:09:17.425Z,3.50
2023-02-03T04:12:03.709Z,3.13
2023-02-03T04:14:33.153Z,3.83
2023-02-03T04:17:01.008Z,3.20
2023-02-03T04:19:30.210Z,3.77
2023-02-03T04:21:58.438Z,3.53
2023-02-03T04:24:26.258Z,2.80
2023-02-03T04:26:54.095Z,3.20
2023-02-03T04:29:21.926Z,3.73
2023-02-03T04:31:49.887Z,3.20
2023-02-03T04:34:17.798Z,3.27
2023-02-03T04:36:46.960Z,2.97
2023-02-03T04:39:14.719Z,3.37
2023-02-03T04:41:42.567Z,2.90
2023-02-03T04:44:10.563Z,3.60
2023-02-03T04:46:38.358Z,3.67
2023-02-03T04:49:06.450Z,3.30
2023-02-03T04:51:34.276Z,3.70
2023-02-03T04:54:03.461Z,3.67
2023-02-03T04:56:31.245Z,3.27
2023-02-03T04:58:59.075Z,3.17
2023-02-03T05:01:26.989Z,3.03
2023-02-03T05:03:54.868Z,2.63
2023-02-03T05:06:24.444Z,2.60
2023-02-03T05:08:52.278Z,2.80
2023-02-03T05:11:21.698Z,2.60
2023-02-03T05:13:49.716Z,2.40
2023-02-03T05:16:17.585Z,2.43
2023-02-03T05:18:45.486Z,2.63
2023-02-03T05:21:13.315Z,2.50
2023-02-03T05:23:41.129Z,2.33
2023-02-03T05:26:09.075Z,2.50
2023-02-03T05:28:38.250Z,2.37
2023-02-03T05:31:06.469Z,2.23
2023-02-03T05:33:34.616Z,2.17
2023-02-03T05:36:02.493Z,2.30
2023-02-03T05:38:30.359Z,2.10
2023-02-03T05:41:15.491Z,1.77
2023-02-03T05:43:44.662Z,2.00
2023-02-03T05:46:12.624Z,1.90
2023-02-03T05:48:40.438Z,1.63
2023-02-03T05:51:08.178Z,1.60
2023-02-03T05:53:35.954Z,1.60
2023-02-03T05:56:03.811Z,1.60
2023-02-03T05:58:31.604Z,1.30
2023-02-03T06:01:00.801Z,2.27
2023-02-03T06:03:28.618Z,1.37
2023-02-03T06:05:56.390Z,1.70
2023-02-03T06:08:28.298Z,1.90
2023-02-03T06:10:59.704Z,1.77
2023-02-03T06:13:27.768Z,1.97
2023-02-03T06:15:56.112Z,1.80
2023-02-03T06:18:25.346Z,1.70
2023-02-03T06:20:53.258Z,1.27
2023-02-03T06:23:21.288Z,1.20
2023-02-03T06:25:50.145Z,1.47
2023-02-03T06:28:18.216Z,1.17
2023-02-03T06:30:46.178Z,1.37
2023-02-03T06:33:14.031Z,1.17
2023-02-03T06:35:43.169Z,1.17
2023-02-03T06:38:11.150Z,1.13
2023-02-03T06:40:38.974Z,2.17
2023-02-03T06:43:06.811Z,1.27
2023-02-03T06:45:34.981Z,1.20
2023-02-03T06:48:02.776Z,1.30
2023-02-03T06:50:30.739Z,1.17
2023-02-03T06:53:00.000Z,1.17
2023-02-03T06:55:27.912Z,1.00
2023-02-03T06:57:55.723Z,1.50
2023-02-03T07:00:24.379Z,3.83
2023-02-03T07:02:55.526Z,7.67
2023-02-03T07:05:24.352Z,6.90
2023-02-03T07:07:52.826Z,5.90
2023-02-03T07:10:22.499Z,1.47
2023-02-03T07:12:51.715Z,1.57
2023-02-03T07:15:19.770Z,1.20
2023-02-03T07:17:54.199Z,1.20
2023-02-03T07:20:23.275Z,1.57
2023-02-03T07:22:55.041Z,1.20
2023-02-03T07:25:24.996Z,1.30
2023-02-03T07:27:52.818Z,1.43
2023-02-03T07:30:21.069Z,1.53
2023-02-03T07:32:49.511Z,1.40
2023-02-03T07:35:17.469Z,1.50
2023-02-03T07:37:45.447Z,1.90
2023-02-03T07:40:15.306Z,1.50
2023-02-03T07:42:45.012Z,1.30
2023-02-03T07:45:14.847Z,2.67
2023-02-03T07:47:43.801Z,1.63
2023-02-03T07:50:12.999Z,1.90
2023-02-03T07:52:40.872Z,2.00
2023-02-03T07:55:09.763Z,1.83
2023-02-03T07:57:37.957Z,1.73
2023-02-03T08:00:08.164Z,2.20
2023-02-03T08:02:35.950Z,2.23
2023-02-03T08:05:03.819Z,1.53
2023-02-03T08:07:31.681Z,1.80
2023-02-03T08:09:59.515Z,1.50
2023-02-03T08:12:27.367Z,1.33
2023-02-03T08:14:55.131Z,1.30
2023-02-03T08:17:24.304Z,1.77
2023-02-03T08:19:52.053Z,1.80
2023-02-03T08:22:19.988Z,1.57
2023-02-03T08:24:48.403Z,1.53
2023-02-03T08:27:18.231Z,1.50
2023-02-03T08:29:46.829Z,1.60
2023-02-03T08:32:17.588Z,1.63
2023-02-03T08:34:47.024Z,1.40
2023-02-03T08:37:16.792Z,1.60
2023-02-03T08:39:45.005Z,1.60
2023-02-03T08:42:12.865Z,1.40
2023-02-03T08:44:40.744Z,1.50
2023-02-03T08:47:08.743Z,1.23
2023-02-03T08:49:39.233Z,1.50
2023-02-03T08:52:09.265Z,1.20
2023-02-03T08:54:38.700Z,1.60
2023-02-03T08:57:07.380Z,1.87
2023-02-03T08:59:36.097Z,1.93
2023-02-03T09:02:04.424Z,2.23
2023-02-03T09:04:33.625Z,1.67
2023-02-03T09:07:03.369Z,1.47
2023-02-03T09:09:32.813Z,1.60
2023-02-03T09:12:05.210Z,1.50
2023-02-03T09:14:33.899Z,1.77
2023-02-03T09:17:03.162Z,2.00
2023-02-03T09:19:31.164Z,1.77
2023-02-03T09:21:59.083Z,1.93
2023-02-03T09:24:27.003Z,1.70
2023-02-03T09:26:56.448Z,4.10
2023-02-03T09:29:24.273Z,3.33
2023-02-03T09:31:53.600Z,4.30
2023-02-03T09:34:21.891Z,4.20
2023-02-03T09:36:51.210Z,2.80
2023-02-03T09:39:19.130Z,2.53
2023-02-03T09:42:11.827Z,2.30
2023-02-03T09:44:47.053Z,1.57
2023-02-03T09:47:18.790Z,1.70
2023-02-03T09:49:51.225Z,2.23
2023-02-03T09:52:22.646Z,2.00
2023-02-03T09:54:55.845Z,1.87
2023-02-03T09:57:27.056Z,1.77
2023-02-03T09:59:58.048Z,1.83
2023-02-03T10:02:39.754Z,1.60
2023-02-03T10:05:15.613Z,1.40
2023-02-03T10:07:51.326Z,1.50
2023-02-03T10:10:27.011Z,1.77
2023-02-03T10:13:03.677Z,1.60
2023-02-03T10:16:03.954Z,1.50
2023-02-03T10:18:37.394Z,1.43
2023-02-03T10:21:13.105Z,1.50
2023-02-03T10:23:43.798Z,1.83
2023-02-03T10:26:17.545Z,1.93
2023-02-03T10:28:52.342Z,1.80
2023-02-03T10:31:23.635Z,1.37
2023-02-03T10:33:59.614Z,1.80
2023-02-03T10:36:39.965Z,1.53
2023-02-03T10:39:18.744Z,1.53
2023-02-03T10:41:46.800Z,1.90
2023-02-03T10:44:16.609Z,1.33
2023-02-03T10:46:46.237Z,1.40
2023-02-03T10:49:16.320Z,1.80
2023-02-03T10:51:49.076Z,1.67
2023-02-03T10:54:32.262Z,1.60
2023-02-03T10:57:05.723Z,1.33
2023-02-03T10:59:37.638Z,1.27
2023-02-03T11:02:10.381Z,1.40
2023-02-03T11:04:38.583Z,1.67
2023-02-03T11:07:08.130Z,1.60
2023-02-03T11:09:38.319Z,1.50
2023-02-03T11:12:14.228Z,1.53
2023-02-03T11:14:45.232Z,1.40
2023-02-03T11:17:18.584Z,1.40
2023-02-03T11:19:48.083Z,1.47
2023-02-03T11:22:29.145Z,1.47
2023-02-03T11:24:57.603Z,1.30
2023-02-03T11:27:27.655Z,1.50
2023-02-03T11:30:11.950Z,1.50
2023-02-03T11:32:42.463Z,1.60
2023-02-03T11:35:18.404Z,1.10
2023-02-03T11:37:48.185Z,1.87
2023-02-03T11:40:38.181Z,1.40
2023-02-03T11:43:16.335Z,1.40
2023-02-03T11:45:48.315Z,1.20
2023-02-03T11:48:23.864Z,1.70
2023-02-03T11:51:01.703Z,1.30
2023-02-03T11:53:47.807Z,1.40
2023-02-03T11:56:32.290Z,1.30
2023-02-03T11:59:24.591Z,1.53
2023-02-03T12:02:24.418Z,1.30
2023-02-03T12:05:16.852Z,1.33
2023-02-03T12:08:02.796Z,1.50
2023-02-03T12:10:40.928Z,1.30
2023-02-03T12:13:22.507Z,1.47
2023-02-03T12:16:02.880Z,1.60
2023-02-03T12:18:45.908Z,1.30
2023-02-03T12:21:37.923Z,1.10
2023-02-03T12:24:15.865Z,1.03
2023-02-03T12:26:56.104Z,1.13
2023-02-03T12:29:32.292Z,1.03
2023-02-03T12:32:07.010Z,1.10
2023-02-03T12:34:41.227Z,1.10
2023-02-03T12:37:14.337Z,0.83
2023-02-03T12:39:46.632Z,1.13
2023-02-03T12:42:19.027Z,1.20
2023-02-03T12:44:51.717Z,1.33
2023-02-03T12:47:27.747Z,1.20
2023-02-03T12:50:00.653Z,0.90
2023-02-03T12:52:35.765Z,0.77
2023-02-03T12:55:21.258Z,1.10
2023-02-03T12:57:54.952Z,1.40
2023-02-03T13:00:35.819Z,1.20
2023-02-03T13:03:14.177Z,1.07
2023-02-03T13:05:49.167Z,0.80
2023-02-03T13:08:24.805Z,0.90
2023-02-03T13:10:56.443Z,0.90
2023-02-03T13:13:32.427Z,1.03
2023-02-03T13:16:04.020Z,1.00
2023-02-03T13:18:35.939Z,0.73
2023-02-03T13:21:05.755Z,1.03
2023-02-03T13:23:33.860Z,1.30
2023-02-03T13:26:48.491Z,1.03
2023-02-03T13:29:43.221Z,1.20
2023-02-03T13:32:25.766Z,1.10
2023-02-03T13:35:12.961Z,1.17
2023-02-03T13:38:29.103Z,1.17
2023-02-03T13:41:03.940Z,1.10
2023-02-03T13:43:39.174Z,1.13
2023-02-03T13:46:09.542Z,1.00
2023-02-03T13:48:38.338Z,1.47
2023-02-03T13:51:09.102Z,3.07
2023-02-03T13:53:41.466Z,1.20
2023-02-03T13:56:17.517Z,2.33
2023-02-03T13:59:00.485Z,1.70
2023-02-03T14:01:33.260Z,0.93
2023-02-03T14:04:01.948Z,1.20
2023-02-03T14:07:03.474Z,1.20
2023-02-03T14:09:40.602Z,1.13
2023-02-03T14:12:34.105Z,1.20
2023-02-03T14:15:18.177Z,1.00
2023-02-03T14:18:21.680Z,1.00
2023-02-03T14:21:12.790Z,0.90
2023-02-03T14:23:46.439Z,0.97
2023-02-03T14:26:23.016Z,1.10
2023-02-03T14:28:53.780Z,0.70
2023-02-03T14:31:24.936Z,1.10
2023-02-03T14:33:58.765Z,0.90
2023-02-03T14:36:45.339Z,0.90
2023-02-03T14:39:55.059Z,0.70
2023-02-03T14:43:12.273Z,1.00
2023-02-03T14:46:17.505Z,0.60
2023-02-03T14:49:01.577Z,0.77
2023-02-03T14:51:47.698Z,1.03
2023-02-03T14:54:32.365Z,1.03
2023-02-03T14:57:19.373Z,0.93
2023-02-03T14:59:49.687Z,1.13
2023-02-03T15:02:22.939Z,1.20
2023-02-03T15:04:51.272Z,1.00
2023-02-03T15:07:44.201Z,1.13
2023-02-03T15:10:17.421Z,1.10
2023-02-03T15:12:48.247Z,0.77
2023-02-03T15:15:24.949Z,0.70
2023-02-03T15:17:56.156Z,0.70
2023-02-03T15:20:38.580Z,1.60
2023-02-03T15:23:19.610Z,1.43
2023-02-03T15:25:53.558Z,1.30
2023-02-03T15:28:23.373Z,2.23
2023-02-03T15:30:55.601Z,2.30
2023-02-03T15:33:25.471Z,1.40
2023-02-03T15:35:57.925Z,2.00
2023-02-03T15:38:30.295Z,1.10
2023-02-03T15:40:59.210Z,1.17
2023-02-03T15:43:31.502Z,1.00
2023-02-03T15:46:06.233Z,1.53
2023-02-03T15:48:39.830Z,1.47
2023-02-03T15:51:12.071Z,0.93
2023-02-03T15:53:48.030Z,0.80
2023-02-03T15:56:23.136Z,1.10
2023-02-03T15:58:51.245Z,1.10
2023-02-03T16:01:26.063Z,1.77
2023-02-03T16:03:56.829Z,1.60
2023-02-03T16:06:28.118Z,1.57
2023-02-03T16:08:56.830Z,1.27
2023-02-03T16:11:30.468Z,1.87
2023-02-03T16:14:00.692Z,1.53
2023-02-03T16:16:32.578Z,1.87
2023-02-03T16:19:04.920Z,1.60
2023-02-03T16:21:37.349Z,2.00
2023-02-03T16:24:06.791Z,1.20
2023-02-03T16:26:38.354Z,1.23
2023-02-03T16:29:33.507Z,1.20
2023-02-03T16:32:19.357Z,1.20
2023-02-03T16:35:06.026Z,1.20
2023-02-03T16:37:53.013Z,1.40
2023-02-03T16:40:40.722Z,1.40
2023-02-03T16:43:31.720Z,1.07
2023-02-03T16:46:18.162Z,1.30
2023-02-03T16:49:03.975Z,1.40
2023-02-03T16:51:40.552Z,1.30
2023-02-03T16:54:10.771Z,1.47
2023-02-03T16:56:38.525Z,1.13
2023-02-03T16:59:06.326Z,1.33
2023-02-03T17:01:34.141Z,1.50
2023-02-03T17:04:01.927Z,2.73
2023-02-03T17:06:29.954Z,2.10
2023-02-03T17:08:59.451Z,1.63
2023-02-03T17:11:27.399Z,1.40
2023-02-03T17:13:55.232Z,1.30
2023-02-03T17:16:24.850Z,1.30
2023-02-03T17:18:53.706Z,1.20
2023-02-03T17:21:24.150Z,1.30
2023-02-03T17:23:52.232Z,1.33
2023-02-03T17:26:21.630Z,1.10
2023-02-03T17:28:49.463Z,1.10
2023-02-03T17:31:20.000Z,1.20
2023-02-03T17:33:51.888Z,1.23
2023-02-03T17:36:21.491Z,1.50
2023-02-03T17:55:24.489Z,1.70
2023-02-03T17:57:53.660Z,2.83
2023-02-03T18:00:21.701Z,2.60
2023-02-03T18:02:50.678Z,2.00
2023-02-03T18:05:19.414Z,2.60
2023-02-03T18:10:20.148Z,1.80
2023-02-03T18:12:47.911Z,1.53
2023-02-03T18:15:17.105Z,1.60
2023-02-03T18:17:44.874Z,1.80
2023-02-03T18:20:14.381Z,1.67
2023-02-03T18:22:42.368Z,4.90
2023-02-03T18:25:10.637Z,4.37
2023-02-03T18:27:38.565Z,2.57
2023-02-03T18:30:08.889Z,2.77
2023-02-03T18:32:38.046Z,2.70
2023-02-03T18:35:11.040Z,3.93
2023-02-03T18:37:38.860Z,3.27
2023-02-03T18:40:08.492Z,2.90
2023-02-03T18:42:36.308Z,2.00
2023-02-03T18:45:06.226Z,1.83
2023-02-03T18:47:35.186Z,3.47
2023-02-03T18:50:04.388Z,12.53
2023-02-03T18:52:32.161Z,9.40
2023-02-03T18:55:00.001Z,8.77
2023-02-03T18:57:27.769Z,4.73
2023-02-03T18:59:55.536Z,2.10
2023-02-03T19:02:25.589Z,5.60
2023-02-03T19:04:53.534Z,2.10
2023-02-03T19:07:22.659Z,2.57
2023-02-03T19:09:50.398Z,3.13
2023-02-03T19:12:18.192Z,3.13
2023-02-03T19:14:46.151Z,1.97
2023-02-03T19:17:14.100Z,1.70
2023-02-03T19:19:41.884Z,1.50
2023-02-03T19:22:09.750Z,1.60
2023-02-03T19:24:38.890Z,2.07
2023-02-03T19:27:06.697Z,2.03
2023-02-03T19:29:35.056Z,1.97
2023-02-03T19:32:02.934Z,2.30
2023-02-03T19:34:30.738Z,2.43
2023-02-03T19:36:59.006Z,2.17
2023-02-03T19:39:26.789Z,1.90
2023-02-03T19:41:55.882Z,2.20
2023-02-03T19:44:23.652Z,1.90
2023-02-03T19:46:51.498Z,1.97
2023-02-03T19:49:19.284Z,1.90
2023-02-03T19:51:47.272Z,2.57
2023-02-03T19:54:16.538Z,2.27
2023-02-03T19:56:44.865Z,2.20
2023-02-03T19:59:13.982Z,2.60
2023-02-03T20:01:42.212Z,2.03
2023-02-03T20:04:10.178Z,2.00
2023-02-03T20:06:38.171Z,2.50
2023-02-03T20:09:06.889Z,2.43
2023-02-03T20:11:34.732Z,2.00
2023-02-03T20:14:02.498Z,1.97
2023-02-03T20:16:31.696Z,2.07
2023-02-03T20:19:00.988Z,2.10
2023-02-03T20:21:28.843Z,2.23
2023-02-03T20:23:56.697Z,2.03
2023-02-03T20:26:24.577Z,1.87
2023-02-03T20:28:52.561Z,2.10
2023-02-03T20:31:21.333Z,2.20
2023-02-03T20:33:52.204Z,2.37
2023-02-03T20:36:20.027Z,2.20
2023-02-03T20:38:48.490Z,1.87
2023-02-03T20:41:19.327Z,2.07
2023-02-03T20:43:47.168Z,2.10
2023-02-03T20:46:16.768Z,1.93
2023-02-03T20:48:44.734Z,2.10
2023-02-03T20:51:14.351Z,1.57
2023-02-03T20:53:44.062Z,1.80
2023-02-03T20:56:15.042Z,2.00
2023-02-03T20:58:44.253Z,1.93
2023-02-03T21:01:17.713Z,1.57
2023-02-03T21:04:03.418Z,1.77
2023-02-03T21:06:34.839Z,2.00
2023-02-03T21:09:09.562Z,2.33
2023-02-03T21:11:37.327Z,1.90
2023-02-03T21:14:16.072Z,1.37
2023-02-03T21:16:43.900Z,1.70
2023-02-03T21:19:21.799Z,1.73
2023-02-03T21:21:52.781Z,1.70
2023-02-03T21:24:27.270Z,1.87
2023-02-03T21:26:56.171Z,2.70
2023-02-03T21:29:26.698Z,1.90
2023-02-03T21:31:55.564Z,1.80
2023-02-03T21:34:28.598Z,1.80
2023-02-03T21:36:58.433Z,2.03
2023-02-03T21:39:28.947Z,1.70
2023-02-03T21:41:57.527Z,1.70
2023-02-03T21:44:28.238Z,2.10
2023-02-03T21:46:56.077Z,1.90
2023-02-03T21:49:23.960Z,1.50
2023-02-03T21:51:51.698Z,1.73
2023-02-03T21:54:30.066Z,1.90
2023-02-03T21:56:58.494Z,1.77
2023-02-03T21:59:29.827Z,2.37
2023-02-03T22:01:58.603Z,1.57
2023-02-03T22:04:27.917Z,1.73
2023-02-03T22:06:56.492Z,1.93
2023-02-03T22:09:27.681Z,1.67
2023-02-03T22:11:55.505Z,1.43
2023-02-03T22:14:23.454Z,1.60
2023-02-03T22:16:51.570Z,2.10
2023-02-03T22:19:19.363Z,1.60
2023-02-03T22:21:48.412Z,1.80
2023-02-03T22:24:16.185Z,1.70
2023-02-03T22:26:45.270Z,1.50
2023-02-03T22:29:13.035Z,2.10
2023-02-03T22:31:42.588Z,2.00
2023-02-03T22:34:10.522Z,1.70
2023-02-03T22:36:38.292Z,1.63
2023-02-03T22:39:06.037Z,1.50
2023-02-03T22:41:33.803Z,1.63
2023-02-03T22:44:03.002Z,2.00
2023-02-03T22:46:30.757Z,1.90
2023-02-03T22:48:58.552Z,1.67
2023-02-03T22:51:26.367Z,1.90
2023-02-03T22:53:54.143Z,1.93
2023-02-03T22:56:23.603Z,2.27
2023-02-03T22:58:52.684Z,2.23
2023-02-03T23:01:21.791Z,1.80
2023-02-03T23:03:49.536Z,1.43
2023-02-03T23:06:17.293Z,1.63
2023-02-03T23:08:45.054Z,1.47
2023-02-03T23:11:12.830Z,2.03
2023-02-03T23:13:40.611Z,1.80
2023-02-03T23:16:08.837Z,1.57
2023-02-03T23:18:37.972Z,1.70
2023-02-03T23:21:05.980Z,1.80
2023-02-03T23:23:33.765Z,1.80
2023-02-03T23:26:01.563Z,2.20
2023-02-03T23:28:29.363Z,2.03
2023-02-03T23:30:57.221Z,1.80
2023-02-03T23:33:25.104Z,2.40
2023-02-03T23:35:55.178Z,2.23
2023-02-03T23:38:23.013Z,2.00
2023-02-03T23:40:50.781Z,1.70
2023-02-03T23:43:18.779Z,1.63
2023-02-03T23:45:46.683Z,1.27
2023-02-03T23:48:14.469Z,2.37
2023-02-03T23:50:42.274Z,1.93
2023-02-03T23:53:11.371Z,1.53
2023-02-03T23:55:39.138Z,1.70
2023-02-03T23:58:06.935Z,1.37
